sensor_id;sensor_type;location;lat;lon;timestamp;temperature;humidity
5617;DHT22;2830;50.656;7.568;2022-10-16T00:02:22;11.70;99.90
5617;DHT22;2830;50.656;7.568;2022-10-16T00:04:49;11.70;99.90
5617;DHT22;2830;50.656;7.568;2022-10-16T00:07:15;11.70;99.90
5617;DHT22;2830;50.656;7.568;2022-10-16T00:09:42;11.60;99.90
5617;DHT22;2830;50.656;7.568;2022-10-16T00:12:08;11.50;99.90
5617;DHT22;2830;50.656;7.568;2022-10-16T00:14:35;11.50;99.90
5617;DHT22;2830;50.656;7.568;2022-10-16T00:17:02;11.50;99.90
5617;DHT22;2830;50.656;7.568;2022-10-16T00:19:29;11.60;99.90
5617;DHT22;2830;50.656;7.568;2022-10-16T00:21:55;11.60;99.90
5617;DHT22;2830;50.656;7.568;2022-10-16T00:24:22;11.60;99.90
5617;DHT22;2830;50.656;7.568;2022-10-16T00:26:49;11.60;99.90
5617;DHT22;2830;50.656;7.568;2022-10-16T00:29:16;11.60;99.90
5617;DHT22;2830;50.656;7.568;2022-10-16T00:31:43;11.50;99.90
5617;DHT22;2830;50.656;7.568;2022-10-16T00:34:09;11.50;99.90
5617;DHT22;2830;50.656;7.568;2022-10-16T00:36:36;11.40;99.90
5617;DHT22;2830;50.656;7.568;2022-10-16T00:39:03;11.40;99.90
5617;DHT22;2830;50.656;7.568;2022-10-16T00:41:30;11.50;99.90
5617;DHT22;2830;50.656;7.568;2022-10-16T00:43:59;11.50;99.90
5617;DHT22;2830;50.656;7.568;2022-10-16T00:46:37;11.40;99.90
5617;DHT22;2830;50.656;7.568;2022-10-16T00:49:15;11.40;99.90
5617;DHT22;2830;50.656;7.568;2022-10-16T00:51:48;11.50;99.90
5617;DHT22;2830;50.656;7.568;2022-10-16T00:54:19;11.40;99.90
5617;DHT22;2830;50.656;7.568;2022-10-16T00:56:47;11.30;99.90
5617;DHT22;2830;50.656;7.568;2022-10-16T00:59:18;11.30;99.90
5617;DHT22;2830;50.656;7.568;2022-10-16T01:01:46;11.30;99.90
5617;DHT22;2830;50.656;7.568;2022-10-16T01:04:12;11.20;99.90
5617;DHT22;2830;50.656;7.568;2022-10-16T01:09:22;11.10;99.90
5617;DHT22;2830;50.656;7.568;2022-10-16T01:12:10;11.20;99.90
5617;DHT22;2830;50.656;7.568;2022-10-16T01:17:23;11.20;99.90
5617;DHT22;2830;50.656;7.568;2022-10-16T01:20:03;11.10;99.90
5617;DHT22;2830;50.656;7.568;2022-10-16T01:26:25;11.20;99.90
5617;DHT22;2830;50.656;7.568;2022-10-16T01:29:14;11.10;99.90
5617;DHT22;2830;50.656;7.568;2022-10-16T01:31:47;11.10;99.90
5617;DHT22;2830;50.656;7.568;2022-10-16T01:34:21;11.00;99.90
5617;DHT22;2830;50.656;7.568;2022-10-16T01:36:55;11.10;99.90
5617;DHT22;2830;50.656;7.568;2022-10-16T01:39:25;11.10;99.90
5617;DHT22;2830;50.656;7.568;2022-10-16T01:42:00;11.10;99.90
5617;DHT22;2830;50.656;7.568;2022-10-16T01:44:32;11.10;99.90
5617;DHT22;2830;50.656;7.568;2022-10-16T01:47:00;11.10;99.90
5617;DHT22;2830;50.656;7.568;2022-10-16T01:49:34;11.10;99.90
5617;DHT22;2830;50.656;7.568;2022-10-16T01:52:06;11.10;99.90
5617;DHT22;2830;50.656;7.568;2022-10-16T01:54:37;11.00;99.90
5617;DHT22;2830;50.656;7.568;2022-10-16T01:57:06;11.10;99.90
5617;DHT22;2830;50.656;7.568;2022-10-16T01:59:38;11.00;99.90
5617;DHT22;2830;50.656;7.568;2022-10-16T02:02:08;11.10;99.90
5617;DHT22;2830;50.656;7.568;2022-10-16T02:04:57;11.00;99.90
5617;DHT22;2830;50.656;7.568;2022-10-16T02:07:24;11.00;99.90
5617;DHT22;2830;50.656;7.568;2022-10-16T02:09:51;11.00;99.90
5617;DHT22;2830;50.656;7.568;2022-10-16T02:12:23;11.00;99.90
5617;DHT22;2830;50.656;7.568;2022-10-16T02:14:52;10.90;99.90
5617;DHT22;2830;50.656;7.568;2022-10-16T02:17:20;10.90;99.90
5617;DHT22;2830;50.656;7.568;2022-10-16T02:19:48;10.80;99.90
5617;DHT22;2830;50.656;7.568;2022-10-16T02:22:39;10.70;99.90
5617;DHT22;2830;50.656;7.568;2022-10-16T02:27:53;10.70;99.90
5617;DHT22;2830;50.656;7.568;2022-10-16T02:30:25;10.60;99.90
5617;DHT22;2830;50.656;7.568;2022-10-16T02:32:55;10.70;99.90
5617;DHT22;2830;50.656;7.568;2022-10-16T02:35:23;10.70;99.90
5617;DHT22;2830;50.656;7.568;2022-10-16T02:37:51;10.60;99.90
5617;DHT22;2830;50.656;7.568;2022-10-16T02:40:19;10.60;99.90
5617;DHT22;2830;50.656;7.568;2022-10-16T02:42:52;10.70;99.90
5617;DHT22;2830;50.656;7.568;2022-10-16T02:45:19;10.80;99.90
5617;DHT22;2830;50.656;7.568;2022-10-16T02:47:46;10.80;99.90
5617;DHT22;2830;50.656;7.568;2022-10-16T02:50:13;10.90;99.90
5617;DHT22;2830;50.656;7.568;2022-10-16T02:52:40;10.90;99.90
5617;DHT22;2830;50.656;7.568;2022-10-16T02:55:07;11.00;99.90
5617;DHT22;2830;50.656;7.568;2022-10-16T02:57:33;11.00;99.90
5617;DHT22;2830;50.656;7.568;2022-10-16T03:00:05;11.10;99.90
5617;DHT22;2830;50.656;7.568;2022-10-16T03:02:32;11.10;99.90
5617;DHT22;2830;50.656;7.568;2022-10-16T03:04:58;11.10;99.90
5617;DHT22;2830;50.656;7.568;2022-10-16T03:07:25;11.20;99.90
5617;DHT22;2830;50.656;7.568;2022-10-16T03:09:52;11.10;99.90
5617;DHT22;2830;50.656;7.568;2022-10-16T03:12:19;11.20;99.90
5617;DHT22;2830;50.656;7.568;2022-10-16T03:14:45;11.10;99.90
5617;DHT22;2830;50.656;7.568;2022-10-16T03:17:12;11.10;99.90
5617;DHT22;2830;50.656;7.568;2022-10-16T03:19:39;11.10;99.90
5617;DHT22;2830;50.656;7.568;2022-10-16T03:22:06;11.20;99.90
5617;DHT22;2830;50.656;7.568;2022-10-16T03:24:32;11.20;99.90
5617;DHT22;2830;50.656;7.568;2022-10-16T03:26:59;11.30;99.90
5617;DHT22;2830;50.656;7.568;2022-10-16T03:29:26;11.40;99.90
5617;DHT22;2830;50.656;7.568;2022-10-16T03:31:54;11.30;99.90
5617;DHT22;2830;50.656;7.568;2022-10-16T03:34:20;11.30;99.90
5617;DHT22;2830;50.656;7.568;2022-10-16T03:36:47;11.30;99.90
5617;DHT22;2830;50.656;7.568;2022-10-16T03:39:14;11.30;99.90
5617;DHT22;2830;50.656;7.568;2022-10-16T03:41:40;11.40;99.90
5617;DHT22;2830;50.656;7.568;2022-10-16T03:44:07;11.40;99.90
5617;DHT22;2830;50.656;7.568;2022-10-16T03:46:34;11.30;99.90
5617;DHT22;2830;50.656;7.568;2022-10-16T03:49:00;11.30;99.90
5617;DHT22;2830;50.656;7.568;2022-10-16T03:51:32;11.30;99.90
5617;DHT22;2830;50.656;7.568;2022-10-16T03:53:59;11.40;99.90
5617;DHT22;2830;50.656;7.568;2022-10-16T03:56:26;11.40;99.90
5617;DHT22;2830;50.656;7.568;2022-10-16T03:58:53;11.40;99.90
5617;DHT22;2830;50.656;7.568;2022-10-16T04:01:19;11.40;99.90
5617;DHT22;2830;50.656;7.568;2022-10-16T04:03:46;11.50;99.90
5617;DHT22;2830;50.656;7.568;2022-10-16T04:06:12;11.50;99.90
5617;DHT22;2830;50.656;7.568;2022-10-16T04:08:42;11.50;99.90
5617;DHT22;2830;50.656;7.568;2022-10-16T04:11:09;11.50;99.90
5617;DHT22;2830;50.656;7.568;2022-10-16T04:13:36;11.50;99.90
5617;DHT22;2830;50.656;7.568;2022-10-16T04:16:03;11.60;99.90
5617;DHT22;2830;50.656;7.568;2022-10-16T04:18:29;11.70;99.90
5617;DHT22;2830;50.656;7.568;2022-10-16T04:20:56;11.90;99.90
5617;DHT22;2830;50.656;7.568;2022-10-16T04:23:23;12.10;99.90
5617;DHT22;2830;50.656;7.568;2022-10-16T04:25:50;12.10;99.90
5617;DHT22;2830;50.656;7.568;2022-10-16T04:28:17;12.30;99.90
5617;DHT22;2830;50.656;7.568;2022-10-16T04:30:44;12.40;99.90
5617;DHT22;2830;50.656;7.568;2022-10-16T04:33:10;12.50;99.90
5617;DHT22;2830;50.656;7.568;2022-10-16T04:35:37;12.60;99.90
5617;DHT22;2830;50.656;7.568;2022-10-16T04:38:04;12.60;99.90
5617;DHT22;2830;50.656;7.568;2022-10-16T04:40:30;12.60;99.90
5617;DHT22;2830;50.656;7.568;2022-10-16T04:43:03;12.70;99.90
5617;DHT22;2830;50.656;7.568;2022-10-16T04:45:30;12.80;99.90
5617;DHT22;2830;50.656;7.568;2022-10-16T04:47:58;12.70;99.90
5617;DHT22;2830;50.656;7.568;2022-10-16T04:50:25;12.70;99.90
5617;DHT22;2830;50.656;7.568;2022-10-16T04:52:51;12.70;99.90
5617;DHT22;2830;50.656;7.568;2022-10-16T04:55:18;12.70;99.90
5617;DHT22;2830;50.656;7.568;2022-10-16T04:57:45;12.70;99.90
5617;DHT22;2830;50.656;7.568;2022-10-16T05:00:12;12.60;99.90
5617;DHT22;2830;50.656;7.568;2022-10-16T05:02:39;12.60;99.90
5617;DHT22;2830;50.656;7.568;2022-10-16T05:05:06;12.60;99.90
5617;DHT22;2830;50.656;7.568;2022-10-16T05:07:33;12.50;99.90
5617;DHT22;2830;50.656;7.568;2022-10-16T05:09:59;12.50;99.90
5617;DHT22;2830;50.656;7.568;2022-10-16T05:12:26;12.60;99.90
5617;DHT22;2830;50.656;7.568;2022-10-16T05:14:53;12.60;99.90
5617;DHT22;2830;50.656;7.568;2022-10-16T05:17:25;12.70;99.90
5617;DHT22;2830;50.656;7.568;2022-10-16T05:19:52;12.70;99.90
5617;DHT22;2830;50.656;7.568;2022-10-16T05:22:19;12.90;99.90
5617;DHT22;2830;50.656;7.568;2022-10-16T05:24:46;12.90;99.90
5617;DHT22;2830;50.656;7.568;2022-10-16T05:27:12;12.90;99.90
5617;DHT22;2830;50.656;7.568;2022-10-16T05:29:48;13.00;99.90
5617;DHT22;2830;50.656;7.568;2022-10-16T05:32:16;13.00;99.90
5617;DHT22;2830;50.656;7.568;2022-10-16T05:34:44;13.00;99.90
5617;DHT22;2830;50.656;7.568;2022-10-16T05:37:11;13.00;99.90
5617;DHT22;2830;50.656;7.568;2022-10-16T05:39:38;13.10;99.90
5617;DHT22;2830;50.656;7.568;2022-10-16T05:42:05;13.10;99.90
5617;DHT22;2830;50.656;7.568;2022-10-16T05:44:32;13.10;99.90
5617;DHT22;2830;50.656;7.568;2022-10-16T05:47:04;13.10;99.90
5617;DHT22;2830;50.656;7.568;2022-10-16T05:49:30;13.10;99.90
5617;DHT22;2830;50.656;7.568;2022-10-16T05:51:57;13.10;99.90
5617;DHT22;2830;50.656;7.568;2022-10-16T05:54:24;13.10;99.90
5617;DHT22;2830;50.656;7.568;2022-10-16T05:56:50;13.10;99.90
5617;DHT22;2830;50.656;7.568;2022-10-16T05:59:17;13.10;99.90
5617;DHT22;2830;50.656;7.568;2022-10-16T06:01:44;13.10;99.90
5617;DHT22;2830;50.656;7.568;2022-10-16T06:04:10;13.10;99.90
5617;DHT22;2830;50.656;7.568;2022-10-16T06:06:45;13.10;99.90
5617;DHT22;2830;50.656;7.568;2022-10-16T06:09:11;13.10;99.90
5617;DHT22;2830;50.656;7.568;2022-10-16T06:11:38;13.10;99.90
5617;DHT22;2830;50.656;7.568;2022-10-16T06:14:05;13.10;99.90
5617;DHT22;2830;50.656;7.568;2022-10-16T06:16:35;13.10;99.90
5617;DHT22;2830;50.656;7.568;2022-10-16T06:19:03;13.20;99.90
5617;DHT22;2830;50.656;7.568;2022-10-16T06:21:33;13.20;99.90
5617;DHT22;2830;50.656;7.568;2022-10-16T06:24:00;13.20;99.90
5617;DHT22;2830;50.656;7.568;2022-10-16T06:26:28;13.20;99.90
5617;DHT22;2830;50.656;7.568;2022-10-16T06:28:57;13.20;99.90
5617;DHT22;2830;50.656;7.568;2022-10-16T06:31:25;13.20;99.90
5617;DHT22;2830;50.656;7.568;2022-10-16T06:33:57;13.20;99.90
5617;DHT22;2830;50.656;7.568;2022-10-16T06:36:24;13.20;99.90
5617;DHT22;2830;50.656;7.568;2022-10-16T06:38:51;13.20;99.90
5617;DHT22;2830;50.656;7.568;2022-10-16T06:41:21;13.30;99.90
5617;DHT22;2830;50.656;7.568;2022-10-16T06:43:48;13.30;99.90
5617;DHT22;2830;50.656;7.568;2022-10-16T06:46:17;13.30;99.90
5617;DHT22;2830;50.656;7.568;2022-10-16T06:48:44;13.30;99.90
5617;DHT22;2830;50.656;7.568;2022-10-16T06:51:16;13.30;99.90
5617;DHT22;2830;50.656;7.568;2022-10-16T06:53:45;13.30;99.90
5617;DHT22;2830;50.656;7.568;2022-10-16T06:56:30;13.40;99.90
5617;DHT22;2830;50.656;7.568;2022-10-16T06:58:59;13.40;99.90
5617;DHT22;2830;50.656;7.568;2022-10-16T07:01:29;13.40;99.90
5617;DHT22;2830;50.656;7.568;2022-10-16T07:03:56;13.40;99.90
5617;DHT22;2830;50.656;7.568;2022-10-16T07:06:26;13.50;99.90
5617;DHT22;2830;50.656;7.568;2022-10-16T07:08:53;13.50;99.90
5617;DHT22;2830;50.656;7.568;2022-10-16T07:11:21;13.50;99.90
5617;DHT22;2830;50.656;7.568;2022-10-16T07:13:49;13.50;99.90
5617;DHT22;2830;50.656;7.568;2022-10-16T07:16:24;13.60;99.90
5617;DHT22;2830;50.656;7.568;2022-10-16T07:18:51;13.70;99.90
5617;DHT22;2830;50.656;7.568;2022-10-16T07:21:24;13.70;99.90
5617;DHT22;2830;50.656;7.568;2022-10-16T07:23:57;13.80;99.90
5617;DHT22;2830;50.656;7.568;2022-10-16T07:26:25;13.80;99.90
5617;DHT22;2830;50.656;7.568;2022-10-16T07:28:53;13.90;99.90
5617;DHT22;2830;50.656;7.568;2022-10-16T07:31:20;14.00;99.90
5617;DHT22;2830;50.656;7.568;2022-10-16T07:33:47;14.10;99.90
5617;DHT22;2830;50.656;7.568;2022-10-16T07:36:16;14.30;99.90
5617;DHT22;2830;50.656;7.568;2022-10-16T07:38:44;14.40;99.90
5617;DHT22;2830;50.656;7.568;2022-10-16T07:41:14;14.50;99.90
5617;DHT22;2830;50.656;7.568;2022-10-16T07:43:45;14.60;99.90
5617;DHT22;2830;50.656;7.568;2022-10-16T07:46:12;14.80;99.90
5617;DHT22;2830;50.656;7.568;2022-10-16T07:48:39;14.90;99.90
5617;DHT22;2830;50.656;7.568;2022-10-16T07:51:07;15.00;99.90
5617;DHT22;2830;50.656;7.568;2022-10-16T07:53:34;15.10;99.90
5617;DHT22;2830;50.656;7.568;2022-10-16T07:56:03;15.20;99.90
5617;DHT22;2830;50.656;7.568;2022-10-16T07:58:30;15.30;99.90
5617;DHT22;2830;50.656;7.568;2022-10-16T08:00:57;15.40;99.90
5617;DHT22;2830;50.656;7.568;2022-10-16T08:03:25;15.50;99.90
5617;DHT22;2830;50.656;7.568;2022-10-16T08:05:52;15.50;99.90
5617;DHT22;2830;50.656;7.568;2022-10-16T08:08:19;15.50;99.90
5617;DHT22;2830;50.656;7.568;2022-10-16T08:10:45;15.70;99.90
5617;DHT22;2830;50.656;7.568;2022-10-16T08:13:12;15.90;99.90
5617;DHT22;2830;50.656;7.568;2022-10-16T08:15:42;16.10;99.90
5617;DHT22;2830;50.656;7.568;2022-10-16T08:18:11;16.40;99.90
5617;DHT22;2830;50.656;7.568;2022-10-16T08:20:38;16.60;99.90
5617;DHT22;2830;50.656;7.568;2022-10-16T08:23:06;16.70;99.90
5617;DHT22;2830;50.656;7.568;2022-10-16T08:25:37;16.60;99.90
5617;DHT22;2830;50.656;7.568;2022-10-16T08:28:08;16.60;99.90
5617;DHT22;2830;50.656;7.568;2022-10-16T08:30:35;16.40;99.90
5617;DHT22;2830;50.656;7.568;2022-10-16T08:33:02;16.50;99.90
5617;DHT22;2830;50.656;7.568;2022-10-16T08:35:29;16.40;99.90
5617;DHT22;2830;50.656;7.568;2022-10-16T08:37:56;16.40;99.90
5617;DHT22;2830;50.656;7.568;2022-10-16T08:40:25;16.50;99.90
5617;DHT22;2830;50.656;7.568;2022-10-16T08:46:06;17.30;99.90
5617;DHT22;2830;50.656;7.568;2022-10-16T08:48:52;17.40;99.90
5617;DHT22;2830;50.656;7.568;2022-10-16T08:54:37;17.60;99.90
5617;DHT22;2830;50.656;7.568;2022-10-16T08:57:14;17.80;99.90
5617;DHT22;2830;50.656;7.568;2022-10-16T08:59:48;17.70;99.90
5617;DHT22;2830;50.656;7.568;2022-10-16T09:02:38;17.70;99.90
5617;DHT22;2830;50.656;7.568;2022-10-16T09:05:54;17.90;99.90
5617;DHT22;2830;50.656;7.568;2022-10-16T09:11:50;18.20;99.90
5617;DHT22;2830;50.656;7.568;2022-10-16T09:22:39;18.70;99.90
5617;DHT22;2830;50.656;7.568;2022-10-16T09:25:16;18.70;99.90
5617;DHT22;2830;50.656;7.568;2022-10-16T09:27:48;18.90;99.90
5617;DHT22;2830;50.656;7.568;2022-10-16T09:30:19;18.60;99.90
5617;DHT22;2830;50.656;7.568;2022-10-16T09:32:49;18.80;99.90
5617;DHT22;2830;50.656;7.568;2022-10-16T09:35:21;18.80;99.90
5617;DHT22;2830;50.656;7.568;2022-10-16T09:37:51;18.70;99.90
5617;DHT22;2830;50.656;7.568;2022-10-16T09:40:30;18.30;99.90
5617;DHT22;2830;50.656;7.568;2022-10-16T09:43:20;18.30;99.90
5617;DHT22;2830;50.656;7.568;2022-10-16T09:45:58;18.50;99.90
5617;DHT22;2830;50.656;7.568;2022-10-16T09:48:42;18.70;99.90
5617;DHT22;2830;50.656;7.568;2022-10-16T09:51:31;18.70;99.90
5617;DHT22;2830;50.656;7.568;2022-10-16T09:54:01;18.80;99.90
5617;DHT22;2830;50.656;7.568;2022-10-16T09:56:30;19.10;99.90
5617;DHT22;2830;50.656;7.568;2022-10-16T09:59:01;19.30;99.90
5617;DHT22;2830;50.656;7.568;2022-10-16T10:01:35;19.40;99.90
5617;DHT22;2830;50.656;7.568;2022-10-16T10:04:04;19.30;99.90
5617;DHT22;2830;50.656;7.568;2022-10-16T10:06:34;19.80;99.90
5617;DHT22;2830;50.656;7.568;2022-10-16T10:11:49;22.10;99.90
5617;DHT22;2830;50.656;7.568;2022-10-16T10:30:40;28.30;99.90
5617;DHT22;2830;50.656;7.568;2022-10-16T10:33:36;28.60;99.90
5617;DHT22;2830;50.656;7.568;2022-10-16T10:36:25;28.70;99.90
5617;DHT22;2830;50.656;7.568;2022-10-16T10:39:08;27.90;99.90
5617;DHT22;2830;50.656;7.568;2022-10-16T10:50:21;28.50;99.90
5617;DHT22;2830;50.656;7.568;2022-10-16T11:01:10;28.60;99.90
5617;DHT22;2830;50.656;7.568;2022-10-16T11:04:08;29.20;99.90
5617;DHT22;2830;50.656;7.568;2022-10-16T11:06:42;30.30;99.10
5617;DHT22;2830;50.656;7.568;2022-10-16T11:09:24;30.50;97.10
5617;DHT22;2830;50.656;7.568;2022-10-16T11:12:06;30.00;97.30
5617;DHT22;2830;50.656;7.568;2022-10-16T11:14:42;30.10;97.10
5617;DHT22;2830;50.656;7.568;2022-10-16T11:17:33;29.20;97.40
5617;DHT22;2830;50.656;7.568;2022-10-16T11:22:48;31.50;95.00
5617;DHT22;2830;50.656;7.568;2022-10-16T11:25:30;31.40;96.00
5617;DHT22;2830;50.656;7.568;2022-10-16T11:30:50;30.90;95.60
5617;DHT22;2830;50.656;7.568;2022-10-16T11:36:08;31.40;93.90
5617;DHT22;2830;50.656;7.568;2022-10-16T11:41:24;31.50;92.10
5617;DHT22;2830;50.656;7.568;2022-10-16T11:47:01;29.70;93.00
5617;DHT22;2830;50.656;7.568;2022-10-16T11:49:59;28.10;94.10
5617;DHT22;2830;50.656;7.568;2022-10-16T11:52:40;27.60;97.50
5617;DHT22;2830;50.656;7.568;2022-10-16T11:55:15;28.20;97.80
5617;DHT22;2830;50.656;7.568;2022-10-16T11:57:57;29.30;96.10
5617;DHT22;2830;50.656;7.568;2022-10-16T12:00:31;30.90;94.30
5617;DHT22;2830;50.656;7.568;2022-10-16T12:08:46;29.40;93.40
5617;DHT22;2830;50.656;7.568;2022-10-16T12:17:25;30.50;93.40
5617;DHT22;2830;50.656;7.568;2022-10-16T12:20:29;32.00;92.30
5617;DHT22;2830;50.656;7.568;2022-10-16T12:23:05;31.50;91.60
5617;DHT22;2830;50.656;7.568;2022-10-16T12:25:37;29.20;93.10
5617;DHT22;2830;50.656;7.568;2022-10-16T12:30:42;26.60;94.90
5617;DHT22;2830;50.656;7.568;2022-10-16T12:35:49;24.70;97.70
5617;DHT22;2830;50.656;7.568;2022-10-16T12:38:22;24.50;99.90
5617;DHT22;2830;50.656;7.568;2022-10-16T12:40:58;23.90;99.90
5617;DHT22;2830;50.656;7.568;2022-10-16T12:43:39;23.50;99.90
5617;DHT22;2830;50.656;7.568;2022-10-16T12:48:38;22.40;99.90
5617;DHT22;2830;50.656;7.568;2022-10-16T12:51:24;21.70;99.90
5617;DHT22;2830;50.656;7.568;2022-10-16T12:54:20;21.50;99.90
5617;DHT22;2830;50.656;7.568;2022-10-16T12:59:52;21.20;99.90
5617;DHT22;2830;50.656;7.568;2022-10-16T13:05:46;21.40;99.90
5617;DHT22;2830;50.656;7.568;2022-10-16T13:11:20;22.60;99.90
5617;DHT22;2830;50.656;7.568;2022-10-16T13:19:44;22.60;99.90
5617;DHT22;2830;50.656;7.568;2022-10-16T13:25:02;21.90;99.90
5617;DHT22;2830;50.656;7.568;2022-10-16T13:30:29;21.60;99.90
5617;DHT22;2830;50.656;7.568;2022-10-16T13:35:58;22.00;99.90
5617;DHT22;2830;50.656;7.568;2022-10-16T13:38:35;22.00;99.90
5617;DHT22;2830;50.656;7.568;2022-10-16T13:41:04;21.80;99.90
5617;DHT22;2830;50.656;7.568;2022-10-16T13:46:06;22.20;99.90
5617;DHT22;2830;50.656;7.568;2022-10-16T13:48:34;22.10;99.90
5617;DHT22;2830;50.656;7.568;2022-10-16T13:51:06;22.30;99.90
5617;DHT22;2830;50.656;7.568;2022-10-16T13:53:34;22.20;99.90
5617;DHT22;2830;50.656;7.568;2022-10-16T13:56:04;22.10;99.90
5617;DHT22;2830;50.656;7.568;2022-10-16T13:58:31;21.80;99.90
5617;DHT22;2830;50.656;7.568;2022-10-16T14:01:24;21.50;99.90
5617;DHT22;2830;50.656;7.568;2022-10-16T14:04:16;21.40;99.90
5617;DHT22;2830;50.656;7.568;2022-10-16T14:06:49;21.20;99.90
5617;DHT22;2830;50.656;7.568;2022-10-16T14:09:28;20.70;99.90
5617;DHT22;2830;50.656;7.568;2022-10-16T14:12:07;20.40;99.90
5617;DHT22;2830;50.656;7.568;2022-10-16T14:14:54;20.20;99.90
5617;DHT22;2830;50.656;7.568;2022-10-16T14:17:22;20.00;99.90
5617;DHT22;2830;50.656;7.568;2022-10-16T14:19:52;19.80;99.90
5617;DHT22;2830;50.656;7.568;2022-10-16T14:22:35;19.60;99.90
5617;DHT22;2830;50.656;7.568;2022-10-16T14:25:25;19.40;99.90
5617;DHT22;2830;50.656;7.568;2022-10-16T14:30:35;19.40;99.90
5617;DHT22;2830;50.656;7.568;2022-10-16T14:33:19;19.30;99.90
5617;DHT22;2830;50.656;7.568;2022-10-16T14:35:46;19.20;99.90
5617;DHT22;2830;50.656;7.568;2022-10-16T14:38:25;19.20;99.90
5617;DHT22;2830;50.656;7.568;2022-10-16T14:40:52;19.30;99.90
5617;DHT22;2830;50.656;7.568;2022-10-16T14:43:27;19.20;99.90
5617;DHT22;2830;50.656;7.568;2022-10-16T14:45:56;19.20;99.90
5617;DHT22;2830;50.656;7.568;2022-10-16T14:48:24;19.10;99.90
5617;DHT22;2830;50.656;7.568;2022-10-16T14:50:51;19.00;99.90
5617;DHT22;2830;50.656;7.568;2022-10-16T14:53:18;19.10;99.90
5617;DHT22;2830;50.656;7.568;2022-10-16T14:55:45;19.10;99.90
5617;DHT22;2830;50.656;7.568;2022-10-16T14:58:20;19.10;99.90
5617;DHT22;2830;50.656;7.568;2022-10-16T15:00:50;19.10;99.90
5617;DHT22;2830;50.656;7.568;2022-10-16T15:03:17;19.20;99.90
5617;DHT22;2830;50.656;7.568;2022-10-16T15:05:44;19.10;99.90
5617;DHT22;2830;50.656;7.568;2022-10-16T15:08:11;19.10;99.90
5617;DHT22;2830;50.656;7.568;2022-10-16T15:10:41;19.10;99.90
5617;DHT22;2830;50.656;7.568;2022-10-16T15:13:12;19.00;99.90
5617;DHT22;2830;50.656;7.568;2022-10-16T15:15:44;19.00;99.90
5617;DHT22;2830;50.656;7.568;2022-10-16T15:18:12;19.00;99.90
5617;DHT22;2830;50.656;7.568;2022-10-16T15:20:41;19.00;99.90
5617;DHT22;2830;50.656;7.568;2022-10-16T15:23:21;18.90;99.90
5617;DHT22;2830;50.656;7.568;2022-10-16T15:25:49;18.90;99.90
5617;DHT22;2830;50.656;7.568;2022-10-16T15:28:18;18.80;99.90
5617;DHT22;2830;50.656;7.568;2022-10-16T15:30:45;18.80;99.90
5617;DHT22;2830;50.656;7.568;2022-10-16T15:33:17;18.70;99.90
5617;DHT22;2830;50.656;7.568;2022-10-16T15:35:48;18.70;99.90
5617;DHT22;2830;50.656;7.568;2022-10-16T15:38:16;18.70;99.90
5617;DHT22;2830;50.656;7.568;2022-10-16T15:40:43;18.60;99.90
5617;DHT22;2830;50.656;7.568;2022-10-16T15:43:10;18.60;99.90
5617;DHT22;2830;50.656;7.568;2022-10-16T15:45:41;18.50;99.90
5617;DHT22;2830;50.656;7.568;2022-10-16T15:48:11;18.50;99.90
5617;DHT22;2830;50.656;7.568;2022-10-16T15:50:40;18.40;99.90
5617;DHT22;2830;50.656;7.568;2022-10-16T15:53:07;18.40;99.90
5617;DHT22;2830;50.656;7.568;2022-10-16T15:55:34;18.30;99.90
5617;DHT22;2830;50.656;7.568;2022-10-16T15:58:02;18.30;99.90
5617;DHT22;2830;50.656;7.568;2022-10-16T16:00:29;18.30;99.90
5617;DHT22;2830;50.656;7.568;2022-10-16T16:02:56;18.20;99.90
5617;DHT22;2830;50.656;7.568;2022-10-16T16:05:25;18.20;99.90
5617;DHT22;2830;50.656;7.568;2022-10-16T16:07:53;18.10;99.90
5617;DHT22;2830;50.656;7.568;2022-10-16T16:10:20;18.00;99.90
5617;DHT22;2830;50.656;7.568;2022-10-16T16:12:48;18.00;99.90
5617;DHT22;2830;50.656;7.568;2022-10-16T16:15:20;18.00;99.90
5617;DHT22;2830;50.656;7.568;2022-10-16T16:17:47;18.00;99.90
5617;DHT22;2830;50.656;7.568;2022-10-16T16:20:14;17.90;99.90
5617;DHT22;2830;50.656;7.568;2022-10-16T16:22:41;17.90;99.90
5617;DHT22;2830;50.656;7.568;2022-10-16T16:25:08;17.80;99.90
5617;DHT22;2830;50.656;7.568;2022-10-16T16:27:35;17.80;99.90
5617;DHT22;2830;50.656;7.568;2022-10-16T16:30:06;17.80;99.90
5617;DHT22;2830;50.656;7.568;2022-10-16T16:32:34;17.70;99.90
5617;DHT22;2830;50.656;7.568;2022-10-16T16:35:02;17.70;99.90
5617;DHT22;2830;50.656;7.568;2022-10-16T16:37:29;17.70;99.90
5617;DHT22;2830;50.656;7.568;2022-10-16T16:39:56;17.60;99.90
5617;DHT22;2830;50.656;7.568;2022-10-16T16:42:26;17.60;99.90
5617;DHT22;2830;50.656;7.568;2022-10-16T16:44:53;17.60;99.90
5617;DHT22;2830;50.656;7.568;2022-10-16T16:47:20;17.50;99.90
5617;DHT22;2830;50.656;7.568;2022-10-16T16:49:47;17.50;99.90
5617;DHT22;2830;50.656;7.568;2022-10-16T16:52:14;17.50;99.90
5617;DHT22;2830;50.656;7.568;2022-10-16T16:54:40;17.50;99.90
5617;DHT22;2830;50.656;7.568;2022-10-16T16:57:07;17.50;99.90
5617;DHT22;2830;50.656;7.568;2022-10-16T16:59:34;17.50;99.90
5617;DHT22;2830;50.656;7.568;2022-10-16T17:02:01;17.50;99.90
5617;DHT22;2830;50.656;7.568;2022-10-16T17:04:28;17.40;99.90
5617;DHT22;2830;50.656;7.568;2022-10-16T17:06:55;17.40;99.90
5617;DHT22;2830;50.656;7.568;2022-10-16T17:09:22;17.40;99.90
5617;DHT22;2830;50.656;7.568;2022-10-16T17:11:48;17.30;99.90
5617;DHT22;2830;50.656;7.568;2022-10-16T17:14:15;17.20;99.90
5617;DHT22;2830;50.656;7.568;2022-10-16T17:16:42;17.20;99.90
5617;DHT22;2830;50.656;7.568;2022-10-16T17:19:16;17.10;99.90
5617;DHT22;2830;50.656;7.568;2022-10-16T17:21:43;17.00;99.90
5617;DHT22;2830;50.656;7.568;2022-10-16T17:24:10;16.90;99.90
5617;DHT22;2830;50.656;7.568;2022-10-16T17:26:37;16.90;99.90
5617;DHT22;2830;50.656;7.568;2022-10-16T17:29:08;16.80;99.90
5617;DHT22;2830;50.656;7.568;2022-10-16T17:31:37;16.60;99.90
5617;DHT22;2830;50.656;7.568;2022-10-16T17:34:06;16.50;99.90
5617;DHT22;2830;50.656;7.568;2022-10-16T17:36:35;16.50;99.90
5617;DHT22;2830;50.656;7.568;2022-10-16T17:39:07;16.40;99.90
5617;DHT22;2830;50.656;7.568;2022-10-16T17:41:34;16.40;99.90
5617;DHT22;2830;50.656;7.568;2022-10-16T17:44:02;16.40;99.90
5617;DHT22;2830;50.656;7.568;2022-10-16T17:46:29;16.40;99.90
5617;DHT22;2830;50.656;7.568;2022-10-16T17:48:56;16.30;99.90
5617;DHT22;2830;50.656;7.568;2022-10-16T17:51:26;16.20;99.90
5617;DHT22;2830;50.656;7.568;2022-10-16T17:53:55;16.20;99.90
5617;DHT22;2830;50.656;7.568;2022-10-16T17:56:23;16.10;99.90
5617;DHT22;2830;50.656;7.568;2022-10-16T17:58:52;16.10;99.90
5617;DHT22;2830;50.656;7.568;2022-10-16T18:01:23;16.00;99.90
5617;DHT22;2830;50.656;7.568;2022-10-16T18:03:51;16.00;99.90
5617;DHT22;2830;50.656;7.568;2022-10-16T18:06:19;16.00;99.90
5617;DHT22;2830;50.656;7.568;2022-10-16T18:08:49;16.00;99.90
5617;DHT22;2830;50.656;7.568;2022-10-16T18:11:16;15.90;99.90
5617;DHT22;2830;50.656;7.568;2022-10-16T18:13:43;15.80;99.90
5617;DHT22;2830;50.656;7.568;2022-10-16T18:16:11;15.80;99.90
5617;DHT22;2830;50.656;7.568;2022-10-16T18:18:40;15.80;99.90
5617;DHT22;2830;50.656;7.568;2022-10-16T18:21:08;15.80;99.90
5617;DHT22;2830;50.656;7.568;2022-10-16T18:23:37;15.70;99.90
5617;DHT22;2830;50.656;7.568;2022-10-16T18:26:05;15.70;99.90
5617;DHT22;2830;50.656;7.568;2022-10-16T18:28:32;15.60;99.90
5617;DHT22;2830;50.656;7.568;2022-10-16T18:31:04;15.60;99.90
5617;DHT22;2830;50.656;7.568;2022-10-16T18:33:32;15.50;99.90